Time;durP1;ratioP1;P1;durP2;ratioP2;P2;SDS_P1;SDS_P2;PMS_P1;PMS_P2;Temp;Humidity;BMP_temperature;BMP_pressure;BME280_temperature;BME280_humidity;BME280_pressure;Samples;Min_cycle;Max_cycle;Signal;HPM_P1;HPM_P2
2022/10/29 00:01:44;;;;;;;4.43;2.20;;;17.80;91.50;;;;;;4941233;29;20054;-76
2022/10/29 00:04:10;;;;;;;5.25;2.50;;;17.80;91.50;;;;;;4948114;28;20034;-78
2022/10/29 00:06:36;;;;;;;6.32;2.38;;;17.70;91.50;;;;;;4954926;29;20520;-82
2022/10/29 00:09:02;;;;;;;5.90;2.70;;;17.70;91.50;;;;;;4954365;29;20465;-78
2022/10/29 00:11:28;;;;;;;5.85;2.80;;;17.80;91.50;;;;;;4953867;29;20033;-78
2022/10/29 00:13:56;;;;;;;6.70;2.63;;;17.80;91.50;;;;;;4953464;28;20046;-77
2022/10/29 00:16:25;;;;;;;5.45;2.40;;;17.80;91.50;;;;;;4953830;29;20102;-77
2022/10/29 00:18:51;;;;;;;4.65;2.40;;;17.80;91.50;;;;;;4952387;29;20042;-77
2022/10/29 00:21:21;;;;;;;5.18;2.17;;;17.80;91.50;;;;;;4953387;29;20043;-78
2022/10/29 00:23:47;;;;;;;4.32;2.30;;;17.80;91.50;;;;;;4952572;28;20035;-77
2022/10/29 00:26:13;;;;;;;6.25;2.85;;;17.80;91.40;;;;;;4952655;29;20027;-77
2022/10/29 00:28:39;;;;;;;4.80;2.50;;;17.80;91.40;;;;;;4954423;29;20024;-77
2022/10/29 00:31:06;;;;;;;5.20;2.40;;;17.80;91.30;;;;;;4953470;29;20082;-77
2022/10/29 00:33:32;;;;;;;5.55;2.72;;;17.90;91.30;;;;;;4953233;28;20098;-76
2022/10/29 00:36:22;;;;;;;4.90;2.35;;;17.80;91.30;;;;;;4954232;28;20046;-77
2022/10/29 00:38:48;;;;;;;4.10;2.10;;;17.80;91.30;;;;;;4953024;29;20031;-77
2022/10/29 00:41:20;;;;;;;5.57;2.58;;;17.80;91.30;;;;;;4931123;29;20473;-77
2022/10/29 00:43:49;;;;;;;4.45;2.35;;;17.80;91.30;;;;;;4938685;29;20031;-76
2022/10/29 00:46:29;;;;;;;5.68;2.30;;;17.80;91.30;;;;;;4946282;28;20031;-76
2022/10/29 00:48:57;;;;;;;4.45;2.15;;;17.80;91.30;;;;;;4936684;29;20023;-77
2022/10/29 00:51:24;;;;;;;5.22;2.50;;;17.80;91.40;;;;;;4952499;29;20027;-76
2022/10/29 00:53:56;;;;;;;5.35;2.55;;;17.80;91.40;;;;;;4955087;28;20028;-76
2022/10/29 00:56:24;;;;;;;5.00;2.40;;;17.80;91.40;;;;;;4954022;28;20061;-77
2022/10/29 00:58:49;;;;;;;5.50;2.40;;;17.80;91.50;;;;;;4953646;29;20494;-77
2022/10/29 01:01:15;;;;;;;5.95;2.78;;;17.80;91.50;;;;;;4953336;28;20045;-77
2022/10/29 01:03:41;;;;;;;5.22;2.50;;;17.70;91.40;;;;;;4944512;29;20027;-77
2022/10/29 01:06:07;;;;;;;5.60;2.58;;;17.70;91.50;;;;;;4953130;29;20039;-77
2022/10/29 01:08:33;;;;;;;3.75;2.20;;;17.80;91.50;;;;;;4953132;28;20089;-77
2022/10/29 01:11:02;;;;;;;5.20;2.40;;;17.70;91.50;;;;;;4936125;29;20423;-76
2022/10/29 01:13:55;;;;;;;5.30;2.42;;;17.70;91.50;;;;;;4953181;29;20039;-78
2022/10/29 01:16:51;;;;;;;4.95;2.40;;;17.70;91.50;;;;;;4950662;28;20051;-77
2022/10/29 01:19:43;;;;;;;4.78;2.42;;;17.70;91.50;;;;;;4947375;29;20114;-76
2022/10/29 01:22:23;;;;;;;4.75;2.33;;;17.80;91.50;;;;;;4949389;29;20038;-77
2022/10/29 01:25:16;;;;;;;4.40;2.40;;;17.70;91.40;;;;;;4949598;29;20153;-77
2022/10/29 01:27:53;;;;;;;4.65;2.70;;;17.80;91.40;;;;;;4940262;29;20122;-77
2022/10/29 01:30:35;;;;;;;4.50;2.22;;;17.80;91.30;;;;;;4945714;29;20035;-77
2022/10/29 01:33:45;;;;;;;4.55;2.10;;;17.80;91.30;;;;;;4948549;29;20105;-78
2022/10/29 01:36:17;;;;;;;5.45;2.25;;;17.80;91.20;;;;;;4872026;29;20079;-77
2022/10/29 01:39:00;;;;;;;5.57;2.72;;;17.80;91.30;;;;;;4872288;29;20037;-78
2022/10/29 01:41:51;;;;;;;5.78;2.50;;;17.80;91.30;;;;;;4919876;29;20050;-79
2022/10/29 01:44:33;;;;;;;5.03;2.35;;;17.80;91.30;;;;;;4950072;29;20035;-78
2022/10/29 01:47:03;;;;;;;4.32;2.10;;;17.80;91.30;;;;;;4949866;29;20020;-78
2022/10/29 01:49:37;;;;;;;4.95;2.35;;;17.80;91.30;;;;;;4949875;29;20027;-77
2022/10/29 01:52:06;;;;;;;4.18;2.20;;;17.60;91.30;;;;;;4949389;29;20057;-77
2022/10/29 01:54:31;;;;;;;4.85;2.20;;;17.70;91.40;;;;;;4949988;29;20035;-77
2022/10/29 01:56:58;;;;;;;4.90;2.55;;;17.70;91.40;;;;;;4949915;29;20078;-77
2022/10/29 01:59:29;;;;;;;5.45;2.47;;;17.70;91.40;;;;;;4949786;29;20074;-76
2022/10/29 02:01:57;;;;;;;4.93;2.30;;;17.70;91.40;;;;;;4947679;29;20038;-78
2022/10/29 02:04:36;;;;;;;5.03;2.50;;;17.70;91.40;;;;;;4932144;29;20054;-77
2022/10/29 02:07:28;;;;;;;5.97;2.42;;;17.70;91.40;;;;;;4932732;29;20404;-78
2022/10/29 02:09:58;;;;;;;4.68;2.30;;;17.70;91.40;;;;;;4949184;29;20024;-76
2022/10/29 02:12:36;;;;;;;5.05;2.60;;;17.70;91.40;;;;;;4933037;29;20066;-76
2022/10/29 02:15:16;;;;;;;5.82;2.38;;;17.70;91.50;;;;;;4949109;29;20073;-77
2022/10/29 02:17:42;;;;;;;4.90;2.47;;;17.70;91.40;;;;;;4949454;29;20028;-77
2022/10/29 02:20:10;;;;;;;4.47;2.40;;;17.70;91.40;;;;;;4947714;29;20085;-77
2022/10/29 02:22:36;;;;;;;5.60;2.67;;;17.70;91.40;;;;;;4942856;29;20114;-77
2022/10/29 02:25:03;;;;;;;4.32;2.28;;;17.70;91.40;;;;;;4947243;29;20537;-78
2022/10/29 02:27:29;;;;;;;4.43;2.20;;;17.80;91.30;;;;;;4949228;28;20110;-77
2022/10/29 02:29:54;;;;;;;5.20;2.55;;;17.80;91.30;;;;;;4947946;29;20122;-77
2022/10/29 02:32:20;;;;;;;5.78;2.45;;;17.80;91.20;;;;;;4948679;29;20035;-77
2022/10/29 02:34:46;;;;;;;5.03;2.65;;;17.80;91.20;;;;;;4949060;29;20042;-76
2022/10/29 02:37:11;;;;;;;4.85;2.67;;;17.80;91.30;;;;;;4948972;29;20035;-78
2022/10/29 02:39:37;;;;;;;5.57;2.45;;;17.80;91.30;;;;;;4931926;29;20070;-79
2022/10/29 02:42:02;;;;;;;4.75;2.38;;;17.80;91.30;;;;;;4947051;29;20528;-76
2022/10/29 02:44:28;;;;;;;5.78;2.47;;;17.80;91.30;;;;;;4948940;29;20065;-77
2022/10/29 02:46:53;;;;;;;5.50;2.28;;;17.70;91.30;;;;;;4948432;29;20023;-77
2022/10/29 02:49:19;;;;;;;4.88;2.58;;;17.70;91.30;;;;;;4931368;29;20031;-77
2022/10/29 02:51:44;;;;;;;4.25;2.30;;;17.70;91.60;;;;;;4931008;29;20039;-78
2022/10/29 02:54:10;;;;;;;5.22;2.60;;;17.70;91.40;;;;;;4947203;29;20405;-77
2022/10/29 02:56:35;;;;;;;5.50;2.75;;;17.70;91.40;;;;;;4944624;29;20117;-77
2022/10/29 02:59:01;;;;;;;5.82;2.67;;;17.70;91.40;;;;;;4946925;29;20400;-77
2022/10/29 03:01:27;;;;;;;4.07;2.30;;;17.70;91.40;;;;;;4931101;29;20039;-77
2022/10/29 03:03:52;;;;;;;4.65;2.50;;;17.70;91.50;;;;;;4948933;29;20031;-79
2022/10/29 03:06:19;;;;;;;6.45;2.80;;;17.70;91.40;;;;;;4950578;29;20027;-84
2022/10/29 03:08:45;;;;;;;6.45;2.85;;;17.70;91.50;;;;;;4955453;29;20051;-83
2022/10/29 03:11:11;;;;;;;7.25;2.80;;;17.70;91.50;;;;;;4951833;29;20035;-78
2022/10/29 03:13:36;;;;;;;5.30;2.60;;;17.70;91.50;;;;;;4931381;29;20509;-77
2022/10/29 03:16:02;;;;;;;5.07;2.75;;;17.70;91.50;;;;;;4948118;29;20127;-77
2022/10/29 03:18:28;;;;;;;4.60;2.47;;;17.70;91.50;;;;;;4948741;29;20042;-77
2022/10/29 03:20:54;;;;;;;4.18;2.40;;;17.70;91.40;;;;;;4927903;29;20772;-76
2022/10/29 03:23:19;;;;;;;5.25;2.42;;;17.70;91.60;;;;;;4943479;29;20089;-77
2022/10/29 03:25:52;;;;;;;5.03;2.60;;;17.70;91.30;;;;;;4946956;29;20110;-77
2022/10/29 03:28:19;;;;;;;5.68;2.92;;;17.70;91.30;;;;;;4930980;29;20038;-77
2022/10/29 03:30:44;;;;;;;6.25;2.70;;;17.80;91.30;;;;;;4946248;29;20031;-77
2022/10/29 03:33:10;;;;;;;6.68;2.67;;;17.80;91.20;;;;;;4948216;29;20114;-77
2022/10/29 03:35:35;;;;;;;5.57;2.35;;;17.70;91.50;;;;;;4947975;29;20038;-77
2022/10/29 03:38:01;;;;;;;5.45;2.70;;;17.80;91.30;;;;;;4946678;29;20027;-77
2022/10/29 03:40:26;;;;;;;5.10;2.70;;;17.70;91.20;;;;;;4945756;28;20027;-76
2022/10/29 03:42:52;;;;;;;5.28;2.90;;;17.70;91.30;;;;;;4946712;29;20027;-76
2022/10/29 03:45:17;;;;;;;4.88;2.45;;;17.70;91.30;;;;;;4947917;29;20023;-77
2022/10/29 03:47:43;;;;;;;5.03;2.72;;;17.70;91.30;;;;;;4946946;29;20027;-77
2022/10/29 03:50:08;;;;;;;6.35;2.67;;;17.80;91.40;;;;;;4947028;29;20023;-76
2022/10/29 03:52:34;;;;;;;5.07;2.70;;;17.70;91.40;;;;;;4944847;29;20038;-77
2022/10/29 03:55:00;;;;;;;6.68;2.60;;;17.70;91.40;;;;;;4930610;29;20028;-76
2022/10/29 03:57:25;;;;;;;4.75;2.33;;;17.70;91.40;;;;;;4940854;28;20023;-76
2022/10/29 03:59:51;;;;;;;5.32;2.70;;;17.70;91.40;;;;;;4930853;29;20038;-76
2022/10/29 04:02:16;;;;;;;7.47;2.80;;;17.80;91.50;;;;;;4944573;28;20569;-77
2022/10/29 04:04:42;;;;;;;6.30;2.83;;;17.70;91.50;;;;;;4930384;29;20024;-76
2022/10/29 04:07:09;;;;;;;3.92;2.28;;;17.60;91.40;;;;;;4941414;29;20043;-76
2022/10/29 04:09:34;;;;;;;5.68;2.60;;;17.70;91.50;;;;;;4941859;29;20042;-77
2022/10/29 04:12:00;;;;;;;5.07;2.50;;;17.70;91.50;;;;;;4945025;29;20035;-78
2022/10/29 04:14:25;;;;;;;5.38;3.03;;;17.70;91.50;;;;;;4948062;29;20062;-77
2022/10/29 04:16:51;;;;;;;5.93;2.42;;;17.60;91.40;;;;;;4944434;29;20409;-76
2022/10/29 04:19:16;;;;;;;5.25;2.58;;;17.70;91.50;;;;;;4926912;29;20050;-76
2022/10/29 04:21:42;;;;;;;4.82;2.55;;;17.70;91.40;;;;;;4921426;29;20986;-77
2022/10/29 04:24:07;;;;;;;5.10;2.75;;;17.70;91.40;;;;;;4943280;29;20082;-76
2022/10/29 04:26:33;;;;;;;5.55;2.85;;;17.70;91.30;;;;;;4946082;29;20513;-77
2022/10/29 04:28:58;;;;;;;5.70;2.75;;;17.70;91.30;;;;;;4946803;29;20378;-75
2022/10/29 04:31:24;;;;;;;6.32;2.97;;;17.80;91.30;;;;;;4943920;28;20059;-76
2022/10/29 04:33:52;;;;;;;6.50;2.90;;;17.70;91.20;;;;;;4947363;29;20035;-77
2022/10/29 04:36:17;;;;;;;6.10;2.65;;;17.70;91.20;;;;;;4935467;29;20512;-78
2022/10/29 04:38:43;;;;;;;4.90;2.70;;;17.70;91.30;;;;;;4948121;29;20035;-76
2022/10/29 04:41:08;;;;;;;4.70;2.55;;;17.70;91.30;;;;;;4926306;29;20031;-77
2022/10/29 04:43:34;;;;;;;5.97;2.88;;;17.70;91.30;;;;;;4911205;29;20019;-77
2022/10/29 04:45:59;;;;;;;4.88;2.50;;;17.70;91.30;;;;;;4934726;28;20489;-76
2022/10/29 04:48:26;;;;;;;5.25;2.60;;;17.70;91.40;;;;;;4945013;29;20027;-77
2022/10/29 04:50:52;;;;;;;6.38;3.10;;;17.70;91.40;;;;;;4943107;28;20565;-80
2022/10/29 04:53:18;;;;;;;5.47;2.70;;;17.70;91.40;;;;;;4942889;29;20035;-77
2022/10/29 04:55:44;;;;;;;5.57;2.83;;;17.70;91.40;;;;;;4949667;29;20501;-77
2022/10/29 04:58:16;;;;;;;6.03;2.88;;;17.60;91.40;;;;;;4931788;29;20387;-76
2022/10/29 05:00:43;;;;;;;6.28;2.80;;;17.70;91.50;;;;;;4949918;29;20023;-77
2022/10/29 05:03:08;;;;;;;4.85;2.80;;;17.60;91.40;;;;;;4951625;29;20156;-76
2022/10/29 05:05:37;;;;;;;5.40;2.70;;;17.60;91.40;;;;;;4951167;29;20041;-78
2022/10/29 05:08:04;;;;;;;5.55;3.03;;;17.70;91.50;;;;;;4948961;29;20031;-77
2022/10/29 05:10:32;;;;;;;5.47;2.72;;;17.60;91.50;;;;;;4941480;29;20038;-76
2022/10/29 05:13:03;;;;;;;6.25;2.95;;;17.70;91.50;;;;;;4932310;29;20028;-77
2022/10/29 05:15:29;;;;;;;;;;;17.60;91.70;;;;;;4931892;29;20039;-77
2022/10/29 05:17:55;;;;;;;5.45;2.60;;;17.70;91.50;;;;;;4932944;29;19918;-77
2022/10/29 05:20:22;;;;;;;6.63;2.92;;;17.60;91.40;;;;;;4942218;29;20074;-76
2022/10/29 05:22:48;;;;;;;5.38;2.47;;;17.70;91.50;;;;;;4929428;29;20039;-77
2022/10/29 05:25:14;;;;;;;5.90;2.58;;;17.70;91.40;;;;;;4943205;29;20023;-77
2022/10/29 05:27:39;;;;;;;4.95;2.58;;;17.70;91.30;;;;;;4946194;29;20437;-77
2022/10/29 05:30:06;;;;;;;5.53;2.90;;;17.70;91.30;;;;;;4948027;29;20035;-77
2022/10/29 05:32:31;;;;;;;6.07;3.40;;;17.70;91.30;;;;;;4934965;29;20027;-77
2022/10/29 05:34:57;;;;;;;5.15;2.70;;;17.80;91.20;;;;;;4938254;29;20043;-76
2022/10/29 05:37:24;;;;;;;5.40;2.50;;;17.80;91.30;;;;;;4943627;29;20031;-74
2022/10/29 05:39:50;;;;;;;5.72;2.63;;;17.70;91.30;;;;;;4930476;29;20090;-74
2022/10/29 05:42:16;;;;;;;5.88;3.05;;;17.70;91.30;;;;;;4947166;29;20089;-75
2022/10/29 05:44:41;;;;;;;4.57;2.40;;;17.70;91.30;;;;;;4938395;29;20489;-75
2022/10/29 05:47:07;;;;;;;7.00;3.05;;;17.70;91.30;;;;;;4941655;29;20077;-75
2022/10/29 05:49:32;;;;;;;6.45;2.92;;;17.70;91.40;;;;;;4950718;29;20019;-79
2022/10/29 05:51:58;;;;;;;4.93;2.63;;;17.70;91.40;;;;;;4945511;29;20059;-76
2022/10/29 05:54:23;;;;;;;5.25;2.90;;;17.60;91.40;;;;;;4932909;29;20031;-81
2022/10/29 05:56:49;;;;;;;5.40;2.83;;;17.60;91.40;;;;;;4943441;28;20081;-76
2022/10/29 05:59:14;;;;;;;5.68;2.70;;;17.60;91.40;;;;;;4941088;28;20114;-76
2022/10/29 06:01:40;;;;;;;5.38;2.90;;;17.60;91.40;;;;;;4938669;29;20040;-74
2022/10/29 06:04:06;;;;;;;4.90;2.58;;;17.70;91.50;;;;;;4917845;29;20489;-75
2022/10/29 06:06:31;;;;;;;5.03;2.70;;;17.70;91.50;;;;;;4922004;29;20028;-73
2022/10/29 06:08:57;;;;;;;7.00;3.35;;;17.60;91.40;;;;;;4948933;29;20023;-76
2022/10/29 06:11:22;;;;;;;6.35;2.90;;;17.50;91.40;;;;;;4951217;29;20027;-79
2022/10/29 06:13:48;;;;;;;4.90;2.90;;;17.60;91.50;;;;;;4948411;29;20838;-75
2022/10/29 06:16:13;;;;;;;5.55;2.90;;;17.60;91.40;;;;;;4948353;29;20082;-75
2022/10/29 06:18:39;;;;;;;6.15;3.17;;;17.70;91.50;;;;;;4949499;29;20038;-74
2022/10/29 06:21:04;;;;;;;5.63;2.90;;;17.60;91.40;;;;;;4931977;29;20461;-75
2022/10/29 06:23:30;;;;;;;5.53;2.92;;;17.60;91.40;;;;;;4948493;29;20138;-75
2022/10/29 06:25:59;;;;;;;6.35;3.47;;;17.70;91.40;;;;;;4949378;29;20549;-75
2022/10/29 06:28:25;;;;;;;5.50;2.92;;;17.70;91.30;;;;;;4932685;29;20063;-74
2022/10/29 06:30:50;;;;;;;5.80;3.10;;;17.80;91.30;;;;;;4948972;29;20509;-75
2022/10/29 06:33:20;;;;;;;5.97;3.33;;;17.70;91.20;;;;;;4949730;29;20509;-75
2022/10/29 06:35:46;;;;;;;6.47;3.33;;;17.80;91.20;;;;;;4949824;29;20035;-74
2022/10/29 06:38:12;;;;;;;5.43;2.92;;;17.80;91.20;;;;;;4946582;29;20518;-75
2022/10/29 06:40:38;;;;;;;6.60;3.35;;;17.60;91.20;;;;;;4948879;29;20039;-77
2022/10/29 06:43:07;;;;;;;7.00;3.00;;;17.70;91.30;;;;;;4949028;29;20027;-75
2022/10/29 06:45:33;;;;;;;6.40;2.88;;;17.70;91.30;;;;;;4967902;28;20042;-75
2022/10/29 06:48:00;;;;;;;5.45;3.22;;;17.70;91.30;;;;;;4968093;28;20508;-75
2022/10/29 06:50:26;;;;;;;5.82;3.05;;;17.70;91.40;;;;;;4967922;28;20508;-77
2022/10/29 06:52:58;;;;;;;5.40;2.70;;;17.60;91.40;;;;;;4969555;28;20051;-75
2022/10/29 06:55:24;;;;;;;5.60;2.72;;;17.60;91.40;;;;;;4952803;28;20057;-80
2022/10/29 06:57:58;;;;;;;6.90;3.10;;;17.60;91.40;;;;;;4950295;28;20058;-82
2022/10/29 07:00:23;;;;;;;5.55;2.80;;;17.60;91.40;;;;;;4950260;29;20129;-76
2022/10/29 07:02:49;;;;;;;6.70;2.83;;;17.60;91.40;;;;;;4948172;29;20035;-76
2022/10/29 07:05:15;;;;;;;4.80;2.67;;;17.60;91.40;;;;;;4948272;29;20600;-75
2022/10/29 07:07:41;;;;;;;5.90;3.40;;;17.60;91.40;;;;;;4948580;29;20050;-76
2022/10/29 07:10:07;;;;;;;5.40;2.70;;;17.60;91.40;;;;;;4947312;29;20597;-76
2022/10/29 07:12:41;;;;;;;5.85;3.10;;;17.60;91.40;;;;;;4932101;29;20070;-77
2022/10/29 07:15:08;;;;;;;5.72;2.90;;;17.60;91.40;;;;;;4946833;28;20042;-75
2022/10/29 07:17:33;;;;;;;5.78;2.80;;;17.60;91.40;;;;;;4949020;29;20448;-76
2022/10/29 07:19:59;;;;;;;6.18;3.03;;;17.60;91.40;;;;;;4948695;29;20114;-77
2022/10/29 07:22:24;;;;;;;6.03;2.90;;;17.70;91.40;;;;;;4949345;29;20114;-76
2022/10/29 07:24:50;;;;;;;5.32;2.85;;;17.60;91.40;;;;;;4949258;29;20036;-75
2022/10/29 07:27:15;;;;;;;5.28;2.70;;;17.70;91.30;;;;;;4948984;29;20027;-76
2022/10/29 07:29:41;;;;;;;5.18;2.72;;;17.70;91.50;;;;;;4949178;29;20031;-75
2022/10/29 07:32:07;;;;;;;5.40;3.10;;;17.70;91.20;;;;;;4948062;29;20083;-76
2022/10/29 07:34:32;;;;;;;5.88;3.08;;;17.70;91.20;;;;;;4950399;29;20093;-75
2022/10/29 07:36:58;;;;;;;4.93;2.95;;;17.70;91.10;;;;;;4949592;29;20038;-76
2022/10/29 07:39:23;;;;;;;5.40;2.65;;;17.70;91.10;;;;;;4947495;29;20027;-76
2022/10/29 07:41:49;;;;;;;6.60;3.20;;;17.70;91.10;;;;;;4930990;29;20598;-76
2022/10/29 07:44:14;;;;;;;4.88;2.88;;;17.70;91.20;;;;;;4947491;29;20549;-76
2022/10/29 07:46:40;;;;;;;5.13;2.90;;;17.70;91.20;;;;;;4948204;29;20031;-77
2022/10/29 07:49:05;;;;;;;5.78;3.00;;;17.70;91.30;;;;;;4949224;29;20027;-76
2022/10/29 07:51:31;;;;;;;6.53;2.90;;;17.70;91.20;;;;;;4949223;29;20039;-76
2022/10/29 07:53:56;;;;;;;5.75;3.15;;;17.60;91.20;;;;;;4948418;29;20477;-75
2022/10/29 07:56:22;;;;;;;5.03;2.83;;;17.70;91.30;;;;;;4949568;29;20442;-76
2022/10/29 07:58:47;;;;;;;5.82;2.85;;;17.70;91.30;;;;;;4947894;29;20058;-75
2022/10/29 08:01:13;;;;;;;5.68;2.88;;;17.70;91.30;;;;;;4943962;28;20027;-75
2022/10/29 08:03:38;;;;;;;5.15;2.75;;;17.70;91.30;;;;;;4927744;29;20498;-76
2022/10/29 08:06:04;;;;;;;5.93;2.90;;;17.70;91.20;;;;;;4940709;29;20063;-77
2022/10/29 08:08:30;;;;;;;5.30;2.80;;;17.70;91.20;;;;;;4946268;29;20024;-76
2022/10/29 08:11:00;;;;;;;5.50;3.05;;;17.80;91.20;;;;;;4941233;28;20023;-77
2022/10/29 08:13:26;;;;;;;5.60;2.97;;;17.80;91.10;;;;;;4937145;29;20802;-78
2022/10/29 08:15:51;;;;;;;5.88;2.70;;;17.80;91.00;;;;;;4929580;29;20037;-77
2022/10/29 08:18:17;;;;;;;6.15;3.33;;;17.80;91.00;;;;;;4947316;29;20041;-77
2022/10/29 08:20:43;;;;;;;5.75;3.13;;;17.80;91.00;;;;;;4943010;29;20032;-77
2022/10/29 08:23:09;;;;;;;5.07;2.70;;;17.80;91.00;;;;;;4939839;29;20074;-75
2022/10/29 08:25:40;;;;;;;4.72;2.78;;;17.80;91.00;;;;;;4944937;28;20043;-74
2022/10/29 08:28:06;;;;;;;5.50;2.90;;;17.80;91.00;;;;;;4962601;28;20076;-75
2022/10/29 08:30:32;;;;;;;5.30;2.88;;;17.90;91.00;;;;;;4968392;28;20860;-75
2022/10/29 08:32:58;;;;;;;5.72;3.08;;;17.90;91.00;;;;;;4949583;28;20031;-75
2022/10/29 08:35:24;;;;;;;7.43;3.30;;;17.80;90.90;;;;;;4933809;29;20031;-74
2022/10/29 08:37:50;;;;;;;7.53;3.28;;;17.90;90.90;;;;;;4928694;29;20453;-75
2022/10/29 08:40:41;;;;;;;7.85;3.50;;;17.90;90.90;;;;;;4952042;28;20019;-74
2022/10/29 08:43:23;;;;;;;5.78;2.90;;;17.90;90.90;;;;;;4931445;29;20454;-76
2022/10/29 08:45:53;;;;;;;6.13;3.10;;;17.90;91.00;;;;;;4915984;29;20545;-75
2022/10/29 08:48:32;;;;;;;5.93;2.90;;;17.80;91.00;;;;;;4931496;29;20039;-76
2022/10/29 08:51:27;;;;;;;5.85;3.10;;;17.80;91.00;;;;;;4933433;29;20506;-77
2022/10/29 08:53:54;;;;;;;5.45;2.92;;;17.80;91.10;;;;;;4934382;29;20038;-77
2022/10/29 08:56:26;;;;;;;7.93;3.10;;;17.80;91.10;;;;;;4958589;28;20023;-76
2022/10/29 08:58:58;;;;;;;6.65;3.17;;;17.80;91.10;;;;;;4951460;29;20113;-77
2022/10/29 09:01:24;;;;;;;7.18;3.20;;;17.80;91.20;;;;;;4949319;29;20117;-77
2022/10/29 09:03:56;;;;;;;13.18;4.00;;;17.80;91.20;;;;;;4952207;29;20055;-79
2022/10/29 09:07:11;;;;;;;6.63;3.20;;;17.80;91.20;;;;;;4934531;29;20027;-79
2022/10/29 09:09:42;;;;;;;7.45;3.47;;;17.80;91.20;;;;;;4900233;29;20081;-80
2022/10/29 09:12:47;;;;;;;9.63;4.38;;;17.80;91.20;;;;;;4953131;29;20495;-78
2022/10/29 09:15:39;;;;;;;10.98;3.83;;;17.70;91.10;;;;;;4937833;29;20441;-85
2022/10/29 09:18:25;;;;;;;7.70;3.63;;;17.80;91.20;;;;;;4940967;29;20038;-80
2022/10/29 09:21:23;;;;;;;10.73;3.88;;;17.80;91.10;;;;;;4949009;29;20496;-79
2022/10/29 09:24:16;;;;;;;7.28;3.45;;;17.80;91.10;;;;;;4952545;29;20027;-80
2022/10/29 09:26:44;;;;;;;7.43;3.67;;;17.90;91.00;;;;;;4939772;29;20027;-80
2022/10/29 09:29:35;;;;;;;7.20;3.33;;;18.00;90.80;;;;;;4954815;29;20027;-79
2022/10/29 09:32:04;;;;;;;7.30;3.58;;;18.00;90.60;;;;;;4933885;29;20447;-79
2022/10/29 09:34:32;;;;;;;7.20;3.63;;;18.00;90.60;;;;;;4946892;29;20402;-80
2022/10/29 09:36:58;;;;;;;6.95;3.53;;;18.10;90.60;;;;;;4925263;29;20028;-79
2022/10/29 09:39:37;;;;;;;7.25;3.28;;;18.00;90.50;;;;;;4937136;29;20413;-80
2022/10/29 09:42:10;;;;;;;8.75;3.80;;;18.10;90.50;;;;;;4943122;29;20102;-80
2022/10/29 09:44:50;;;;;;;8.40;3.50;;;18.10;90.60;;;;;;4935147;29;20027;-80
2022/10/29 09:47:19;;;;;;;8.98;3.67;;;18.10;90.50;;;;;;4954579;29;20027;-80
2022/10/29 09:49:59;;;;;;;6.57;3.42;;;18.10;90.50;;;;;;4952425;29;20046;-80
2022/10/29 09:52:38;;;;;;;10.25;3.85;;;18.10;90.50;;;;;;4929607;29;20027;-80
2022/10/29 09:55:06;;;;;;;8.02;3.67;;;18.00;90.50;;;;;;4950885;29;20042;-80
2022/10/29 09:57:35;;;;;;;6.95;3.28;;;18.10;90.80;;;;;;4955643;29;20031;-79
2022/10/29 10:00:06;;;;;;;6.20;3.72;;;18.10;90.50;;;;;;4954274;29;20023;-78
2022/10/29 10:02:42;;;;;;;;;;;18.10;90.60;;;;;;4952505;29;20118;-80
2022/10/29 10:05:24;;;;;;;8.88;3.47;;;18.00;90.50;;;;;;4955666;29;19914;-79
2022/10/29 10:08:10;;;;;;;8.70;3.42;;;18.00;90.60;;;;;;4954826;29;20110;-79
2022/10/29 10:10:51;;;;;;;6.55;3.20;;;18.00;90.50;;;;;;4953530;29;20020;-80
2022/10/29 10:13:18;;;;;;;5.35;3.10;;;18.10;90.50;;;;;;4953500;29;20038;-79
2022/10/29 10:15:53;;;;;;;7.00;3.40;;;18.10;90.40;;;;;;4953615;29;20453;-81
2022/10/29 10:18:24;;;;;;;6.82;3.30;;;18.30;90.40;;;;;;4955899;29;20027;-80
2022/10/29 10:21:13;;;;;;;;;;;18.20;90.30;;;;;;4955560;29;20023;-79
2022/10/29 10:23:45;;;;;;;6.80;3.88;;;18.30;90.20;;;;;;4931494;29;19914;-79
2022/10/29 10:26:29;;;;;;;;;;;18.30;90.10;;;;;;4937021;29;20545;-80
2022/10/29 10:29:16;;;;;;;6.47;3.33;;;18.30;90.10;;;;;;4953959;29;20254;-80
2022/10/29 10:31:44;;;;;;;6.22;3.50;;;18.30;90.00;;;;;;4934992;29;20406;-80
2022/10/29 10:34:19;;;;;;;6.15;3.15;;;18.40;90.10;;;;;;4917231;29;20024;-79
2022/10/29 10:36:51;;;;;;;5.80;2.92;;;18.40;90.10;;;;;;4935024;29;20422;-79
2022/10/29 10:39:19;;;;;;;6.80;3.22;;;18.30;90.00;;;;;;4918224;29;20027;-80
2022/10/29 10:41:48;;;;;;;7.43;3.42;;;18.40;90.00;;;;;;4916729;29;20494;-80
2022/10/29 10:44:14;;;;;;;6.88;3.28;;;18.40;90.00;;;;;;4934611;29;20087;-80
2022/10/29 10:46:42;;;;;;;6.32;3.13;;;18.40;90.00;;;;;;4936739;29;20159;-79
2022/10/29 10:49:10;;;;;;;6.50;3.53;;;18.40;90.00;;;;;;4935286;29;20063;-79
2022/10/29 10:51:39;;;;;;;5.65;3.10;;;18.40;90.00;;;;;;4916241;29;20031;-79
2022/10/29 10:54:28;;;;;;;6.68;3.42;;;18.40;90.10;;;;;;4933741;29;20110;-80
2022/10/29 10:57:02;;;;;;;6.73;3.47;;;18.30;90.10;;;;;;4933217;29;20498;-80
2022/10/29 10:59:54;;;;;;;6.13;3.10;;;18.30;90.10;;;;;;4938286;29;20027;-80
2022/10/29 11:02:38;;;;;;;6.75;3.67;;;18.30;90.10;;;;;;4923610;29;20071;-80
2022/10/29 11:05:17;;;;;;;5.60;2.92;;;18.40;90.00;;;;;;4932899;29;20115;-80
2022/10/29 11:07:51;;;;;;;6.53;3.50;;;18.40;90.00;;;;;;4933271;29;20028;-80
2022/10/29 11:10:19;;;;;;;6.10;3.30;;;18.30;89.90;;;;;;4916450;29;20506;-78
2022/10/29 11:12:53;;;;;;;5.88;2.95;;;18.40;89.80;;;;;;4937750;29;20168;-79
2022/10/29 11:15:34;;;;;;;6.85;3.30;;;18.50;89.70;;;;;;4953027;29;20486;-78
2022/10/29 11:18:18;;;;;;;6.15;3.25;;;18.50;89.50;;;;;;4951482;29;20059;-79
2022/10/29 11:20:56;;;;;;;5.38;3.22;;;18.60;89.50;;;;;;4935529;29;20086;-80
2022/10/29 11:23:40;;;;;;;6.43;3.20;;;18.60;89.40;;;;;;4948105;28;20107;-78
2022/10/29 11:26:24;;;;;;;6.22;3.10;;;18.60;89.50;;;;;;4934800;29;20044;-78
2022/10/29 11:29:13;;;;;;;26.67;4.30;;;18.60;89.40;;;;;;4943062;29;20082;-78
2022/10/29 11:32:36;;;;;;;17.25;4.00;;;18.60;89.40;;;;;;4912431;29;20036;-77
2022/10/29 11:35:22;;;;;;;16.02;3.58;;;18.60;89.70;;;;;;4864318;29;20033;-77
2022/10/29 11:38:25;;;;;;;18.77;4.10;;;18.60;89.50;;;;;;4855141;29;20073;-82
2022/10/29 11:41:16;;;;;;;16.40;3.70;;;18.70;89.60;;;;;;4863996;29;20047;-78
2022/10/29 11:43:42;;;;;;;15.15;3.90;;;18.70;89.30;;;;;;4947170;29;20127;-78
2022/10/29 11:46:16;;;;;;;14.00;3.90;;;18.70;89.10;;;;;;4947316;29;20109;-77
2022/10/29 11:48:59;;;;;;;14.10;3.85;;;18.80;89.40;;;;;;4930174;29;20066;-78
2022/10/29 11:51:38;;;;;;;17.13;4.50;;;18.80;89.50;;;;;;4930075;29;20038;-76
2022/10/29 11:54:29;;;;;;;9.65;3.15;;;18.80;89.50;;;;;;4947516;29;20031;-78
2022/10/29 11:56:54;;;;;;;8.43;3.15;;;18.80;89.70;;;;;;4930095;29;20043;-77
2022/10/29 11:59:36;;;;;;;11.48;4.20;;;18.80;90.00;;;;;;4931116;29;20027;-78
2022/10/29 12:02:20;;;;;;;7.90;2.95;;;18.90;89.80;;;;;;4948567;29;20031;-77
2022/10/29 12:05:00;;;;;;;11.30;3.13;;;19.00;90.30;;;;;;4948418;29;20061;-77
2022/10/29 12:07:32;;;;;;;11.40;3.70;;;19.10;90.20;;;;;;4948032;29;20019;-76
2022/10/29 12:09:57;;;;;;;7.90;3.25;;;19.20;90.90;;;;;;4946853;29;20023;-76
2022/10/29 12:12:34;;;;;;;8.93;3.20;;;19.30;90.80;;;;;;4946868;29;20030;-77
2022/10/29 12:15:16;;;;;;;9.07;3.25;;;19.50;91.20;;;;;;4947109;29;20042;-76
2022/10/29 12:18:04;;;;;;;8.25;3.10;;;19.50;91.10;;;;;;4945227;29;20171;-76
2022/10/29 12:20:48;;;;;;;10.10;3.17;;;19.60;91.40;;;;;;4931343;29;20027;-75
2022/10/29 12:23:26;;;;;;;12.32;3.72;;;19.70;91.40;;;;;;4945554;29;20028;-77
2022/10/29 12:25:57;;;;;;;10.55;3.40;;;19.70;91.50;;;;;;4950405;29;20640;-77
2022/10/29 12:28:38;;;;;;;10.73;3.30;;;19.70;91.80;;;;;;4950885;29;20103;-78
2022/10/29 12:31:16;;;;;;;10.43;2.80;;;19.80;91.80;;;;;;4949805;29;20601;-78
2022/10/29 12:33:50;;;;;;;8.50;3.50;;;19.80;92.20;;;;;;4933274;29;20131;-78
2022/10/29 12:36:31;;;;;;;6.97;3.28;;;19.90;92.10;;;;;;4954246;29;20039;-78
2022/10/29 12:38:59;;;;;;;10.02;3.10;;;20.00;92.00;;;;;;4950973;29;20031;-78
2022/10/29 12:41:44;;;;;;;7.85;3.00;;;20.00;92.10;;;;;;4950165;29;20039;-78
2022/10/29 12:44:24;;;;;;;8.15;2.88;;;20.10;92.20;;;;;;4952702;29;20034;-77
2022/10/29 12:46:58;;;;;;;12.75;3.50;;;20.10;92.30;;;;;;4948027;29;20023;-79
2022/10/29 12:49:42;;;;;;;7.97;2.72;;;20.10;92.50;;;;;;4948721;29;20200;-78
2022/10/29 12:52:35;;;;;;;8.82;3.20;;;20.10;92.50;;;;;;4948676;29;20042;-78
2022/10/29 12:55:03;;;;;;;7.32;3.25;;;20.10;92.60;;;;;;4937217;29;20675;-77
2022/10/29 12:57:33;;;;;;;7.68;3.03;;;20.10;92.70;;;;;;4942680;28;20118;-78
2022/10/29 13:00:26;;;;;;;9.00;2.97;;;20.20;93.00;;;;;;4949876;29;20531;-80
2022/10/29 13:02:55;;;;;;;11.52;3.45;;;20.20;93.60;;;;;;4953449;29;20643;-79
2022/10/29 13:05:32;;;;;;;8.52;3.22;;;20.10;93.90;;;;;;4953848;29;20031;-77
2022/10/29 13:08:01;;;;;;;8.02;3.20;;;20.10;93.80;;;;;;4948571;29;20441;-76
2022/10/29 13:10:28;;;;;;;11.30;3.42;;;20.00;93.70;;;;;;4948181;29;20115;-77